sensor_id;sensor_type;location;lat;lon;timestamp;temperature;humidity
67549;DHT22;54382;53.524;49.326;2022-09-13T00:01:00;18.00;47.10
67549;DHT22;54382;53.524;49.326;2022-09-13T00:03:27;17.90;47.20
67549;DHT22;54382;53.524;49.326;2022-09-13T00:05:54;17.90;47.40
67549;DHT22;54382;53.524;49.326;2022-09-13T00:08:21;17.80;47.50
67549;DHT22;54382;53.524;49.326;2022-09-13T00:10:47;17.70;47.70
67549;DHT22;54382;53.524;49.326;2022-09-13T00:13:15;17.70;47.70
67549;DHT22;54382;53.524;49.326;2022-09-13T00:15:47;17.60;47.80
67549;DHT22;54382;53.524;49.326;2022-09-13T00:18:16;17.60;48.00
67549;DHT22;54382;53.524;49.326;2022-09-13T00:20:43;17.50;47.90
67549;DHT22;54382;53.524;49.326;2022-09-13T00:23:11;17.40;48.00
67549;DHT22;54382;53.524;49.326;2022-09-13T00:25:38;17.50;48.20
67549;DHT22;54382;53.524;49.326;2022-09-13T00:28:05;17.40;48.30
67549;DHT22;54382;53.524;49.326;2022-09-13T00:30:32;17.40;48.40
67549;DHT22;54382;53.524;49.326;2022-09-13T00:32:59;17.40;48.40
67549;DHT22;54382;53.524;49.326;2022-09-13T00:35:29;17.30;48.30
67549;DHT22;54382;53.524;49.326;2022-09-13T00:37:58;17.30;48.50
67549;DHT22;54382;53.524;49.326;2022-09-13T00:40:25;17.30;48.60
67549;DHT22;54382;53.524;49.326;2022-09-13T00:42:53;17.20;48.60
67549;DHT22;54382;53.524;49.326;2022-09-13T00:45:21;17.20;48.80
67549;DHT22;54382;53.524;49.326;2022-09-13T00:47:55;17.20;48.80
67549;DHT22;54382;53.524;49.326;2022-09-13T00:50:34;17.20;48.90
67549;DHT22;54382;53.524;49.326;2022-09-13T00:53:08;17.10;48.80
67549;DHT22;54382;53.524;49.326;2022-09-13T00:55:49;17.10;48.90
67549;DHT22;54382;53.524;49.326;2022-09-13T00:58:33;17.10;49.00
67549;DHT22;54382;53.524;49.326;2022-09-13T01:01:12;17.10;49.10
67549;DHT22;54382;53.524;49.326;2022-09-13T01:03:40;17.10;48.90
67549;DHT22;54382;53.524;49.326;2022-09-13T01:06:15;17.00;49.00
67549;DHT22;54382;53.524;49.326;2022-09-13T01:08:47;17.00;49.10
67549;DHT22;54382;53.524;49.326;2022-09-13T01:11:41;17.00;49.10
67549;DHT22;54382;53.524;49.326;2022-09-13T01:14:15;17.00;49.10
67549;DHT22;54382;53.524;49.326;2022-09-13T01:17:00;17.00;49.00
67549;DHT22;54382;53.524;49.326;2022-09-13T01:19:27;17.00;49.00
67549;DHT22;54382;53.524;49.326;2022-09-13T01:22:56;17.00;49.20
67549;DHT22;54382;53.524;49.326;2022-09-13T01:31:06;17.00;49.40
67549;DHT22;54382;53.524;49.326;2022-09-13T01:39:37;17.00;49.10
67549;DHT22;54382;53.524;49.326;2022-09-13T01:45:54;17.10;48.70
67549;DHT22;54382;53.524;49.326;2022-09-13T01:49:28;17.00;49.10
67549;DHT22;54382;53.524;49.326;2022-09-13T01:51:59;16.90;49.40
67549;DHT22;54382;53.524;49.326;2022-09-13T01:57:27;16.80;49.60
67549;DHT22;54382;53.524;49.326;2022-09-13T02:00:04;16.70;49.90
67549;DHT22;54382;53.524;49.326;2022-09-13T02:02:42;16.70;49.80
67549;DHT22;54382;53.524;49.326;2022-09-13T02:08:00;16.60;50.20
67549;DHT22;54382;53.524;49.326;2022-09-13T02:11:02;16.50;50.20
67549;DHT22;54382;53.524;49.326;2022-09-13T02:13:34;16.50;50.40
67549;DHT22;54382;53.524;49.326;2022-09-13T02:16:10;16.50;50.40
67549;DHT22;54382;53.524;49.326;2022-09-13T02:18:44;16.50;50.60
67549;DHT22;54382;53.524;49.326;2022-09-13T02:21:28;16.50;50.80
67549;DHT22;54382;53.524;49.326;2022-09-13T02:24:10;16.50;50.90
67549;DHT22;54382;53.524;49.326;2022-09-13T02:26:51;16.40;50.70
67549;DHT22;54382;53.524;49.326;2022-09-13T02:29:20;16.40;50.50
67549;DHT22;54382;53.524;49.326;2022-09-13T02:32:09;16.40;50.60
67549;DHT22;54382;53.524;49.326;2022-09-13T02:34:42;16.40;50.90
67549;DHT22;54382;53.524;49.326;2022-09-13T02:37:11;16.40;50.90
67549;DHT22;54382;53.524;49.326;2022-09-13T02:39:43;16.30;50.40
67549;DHT22;54382;53.524;49.326;2022-09-13T02:42:25;16.50;50.00
67549;DHT22;54382;53.524;49.326;2022-09-13T02:44:56;16.50;49.70
67549;DHT22;54382;53.524;49.326;2022-09-13T02:55:21;16.70;49.40
67549;DHT22;54382;53.524;49.326;2022-09-13T03:00:24;16.70;49.10
67549;DHT22;54382;53.524;49.326;2022-09-13T03:02:50;16.80;49.10
67549;DHT22;54382;53.524;49.326;2022-09-13T03:05:18;16.90;49.00
67549;DHT22;54382;53.524;49.326;2022-09-13T03:07:45;16.90;48.90
67549;DHT22;54382;53.524;49.326;2022-09-13T03:10:14;17.00;49.10
67549;DHT22;54382;53.524;49.326;2022-09-13T03:23:46;17.30;48.60
67549;DHT22;54382;53.524;49.326;2022-09-13T03:26:25;17.30;48.40
67549;DHT22;54382;53.524;49.326;2022-09-13T03:37:26;17.70;48.20
67549;DHT22;54382;53.524;49.326;2022-09-13T03:40:41;17.80;48.00
67549;DHT22;54382;53.524;49.326;2022-09-13T03:43:41;17.90;47.80
67549;DHT22;54382;53.524;49.326;2022-09-13T03:46:14;18.10;48.20
67549;DHT22;54382;53.524;49.326;2022-09-13T03:48:42;18.20;47.30
67549;DHT22;54382;53.524;49.326;2022-09-13T03:51:09;18.30;47.10
67549;DHT22;54382;53.524;49.326;2022-09-13T03:53:40;18.40;46.90
67549;DHT22;54382;53.524;49.326;2022-09-13T03:56:14;18.50;46.80
67549;DHT22;54382;53.524;49.326;2022-09-13T03:58:42;18.60;46.50
67549;DHT22;54382;53.524;49.326;2022-09-13T04:01:09;18.70;46.40
67549;DHT22;54382;53.524;49.326;2022-09-13T04:03:38;18.80;46.20
67549;DHT22;54382;53.524;49.326;2022-09-13T04:06:04;19.00;46.00
67549;DHT22;54382;53.524;49.326;2022-09-13T04:08:31;19.10;45.70
67549;DHT22;54382;53.524;49.326;2022-09-13T04:10:58;19.20;45.50
67549;DHT22;54382;53.524;49.326;2022-09-13T04:13:26;19.40;45.00
67549;DHT22;54382;53.524;49.326;2022-09-13T04:15:52;19.60;44.70
67549;DHT22;54382;53.524;49.326;2022-09-13T04:18:19;19.80;43.80
67549;DHT22;54382;53.524;49.326;2022-09-13T04:20:52;19.90;43.90
67549;DHT22;54382;53.524;49.326;2022-09-13T04:23:19;20.00;43.40
67549;DHT22;54382;53.524;49.326;2022-09-13T04:25:45;20.20;43.30
67549;DHT22;54382;53.524;49.326;2022-09-13T04:28:11;20.40;43.30
67549;DHT22;54382;53.524;49.326;2022-09-13T04:30:38;20.50;43.20
67549;DHT22;54382;53.524;49.326;2022-09-13T04:33:04;20.70;42.90
67549;DHT22;54382;53.524;49.326;2022-09-13T04:35:30;20.80;42.10
67549;DHT22;54382;53.524;49.326;2022-09-13T04:37:57;20.90;42.00
67549;DHT22;54382;53.524;49.326;2022-09-13T04:40:23;21.10;41.50
67549;DHT22;54382;53.524;49.326;2022-09-13T04:42:50;21.20;41.70
67549;DHT22;54382;53.524;49.326;2022-09-13T04:45:16;21.40;41.00
67549;DHT22;54382;53.524;49.326;2022-09-13T04:47:43;21.50;41.00
67549;DHT22;54382;53.524;49.326;2022-09-13T04:50:09;21.60;40.90
67549;DHT22;54382;53.524;49.326;2022-09-13T04:52:35;21.70;40.50
67549;DHT22;54382;53.524;49.326;2022-09-13T04:55:02;21.70;40.20
67549;DHT22;54382;53.524;49.326;2022-09-13T04:57:28;21.90;40.20
67549;DHT22;54382;53.524;49.326;2022-09-13T04:59:55;22.00;39.80
67549;DHT22;54382;53.524;49.326;2022-09-13T05:02:21;22.10;39.50
67549;DHT22;54382;53.524;49.326;2022-09-13T05:04:47;22.20;39.00
67549;DHT22;54382;53.524;49.326;2022-09-13T05:07:14;22.20;38.40
67549;DHT22;54382;53.524;49.326;2022-09-13T05:09:40;22.40;38.00
67549;DHT22;54382;53.524;49.326;2022-09-13T05:12:06;22.50;37.60
67549;DHT22;54382;53.524;49.326;2022-09-13T05:14:33;22.60;37.60
67549;DHT22;54382;53.524;49.326;2022-09-13T05:16:59;22.70;37.10
67549;DHT22;54382;53.524;49.326;2022-09-13T05:19:26;22.80;36.10
67549;DHT22;54382;53.524;49.326;2022-09-13T05:21:52;22.90;35.90
67549;DHT22;54382;53.524;49.326;2022-09-13T05:24:18;23.10;35.80
67549;DHT22;54382;53.524;49.326;2022-09-13T05:26:44;23.20;34.90
67549;DHT22;54382;53.524;49.326;2022-09-13T05:29:13;23.40;34.90
67549;DHT22;54382;53.524;49.326;2022-09-13T05:31:40;23.50;35.10
67549;DHT22;54382;53.524;49.326;2022-09-13T05:34:11;23.50;34.70
67549;DHT22;54382;53.524;49.326;2022-09-13T05:36:39;23.60;34.10
67549;DHT22;54382;53.524;49.326;2022-09-13T05:39:06;23.60;34.40
67549;DHT22;54382;53.524;49.326;2022-09-13T05:41:37;23.70;34.40
67549;DHT22;54382;53.524;49.326;2022-09-13T05:44:03;23.80;33.90
67549;DHT22;54382;53.524;49.326;2022-09-13T05:46:30;23.90;33.60
67549;DHT22;54382;53.524;49.326;2022-09-13T05:48:56;24.10;33.60
67549;DHT22;54382;53.524;49.326;2022-09-13T05:51:24;24.20;33.70
67549;DHT22;54382;53.524;49.326;2022-09-13T05:53:51;24.30;32.80
67549;DHT22;54382;53.524;49.326;2022-09-13T05:56:21;24.40;32.40
67549;DHT22;54382;53.524;49.326;2022-09-13T05:58:49;24.40;32.70
67549;DHT22;54382;53.524;49.326;2022-09-13T06:01:17;24.50;32.90
67549;DHT22;54382;53.524;49.326;2022-09-13T06:03:51;24.50;32.70
67549;DHT22;54382;53.524;49.326;2022-09-13T06:06:20;24.60;32.80
67549;DHT22;54382;53.524;49.326;2022-09-13T06:08:47;24.70;32.60
67549;DHT22;54382;53.524;49.326;2022-09-13T06:11:16;24.80;32.20
67549;DHT22;54382;53.524;49.326;2022-09-13T06:13:42;24.90;31.20
67549;DHT22;54382;53.524;49.326;2022-09-13T06:16:10;25.00;31.70
67549;DHT22;54382;53.524;49.326;2022-09-13T06:18:37;25.20;31.30
67549;DHT22;54382;53.524;49.326;2022-09-13T06:21:05;25.40;31.50
67549;DHT22;54382;53.524;49.326;2022-09-13T06:23:33;25.60;31.70
67549;DHT22;54382;53.524;49.326;2022-09-13T06:28:26;26.00;30.80
67549;DHT22;54382;53.524;49.326;2022-09-13T06:30:58;26.20;29.90
67549;DHT22;54382;53.524;49.326;2022-09-13T06:33:28;26.30;30.10
67549;DHT22;54382;53.524;49.326;2022-09-13T06:35:58;26.50;30.10
67549;DHT22;54382;53.524;49.326;2022-09-13T06:38:25;26.80;30.00
67549;DHT22;54382;53.524;49.326;2022-09-13T06:40:58;27.00;28.90
67549;DHT22;54382;53.524;49.326;2022-09-13T06:43:26;27.20;28.90
67549;DHT22;54382;53.524;49.326;2022-09-13T06:45:52;27.40;28.70
67549;DHT22;54382;53.524;49.326;2022-09-13T06:48:19;27.50;28.60
67549;DHT22;54382;53.524;49.326;2022-09-13T06:50:45;27.60;28.60
67549;DHT22;54382;53.524;49.326;2022-09-13T06:53:11;27.70;28.40
67549;DHT22;54382;53.524;49.326;2022-09-13T06:55:38;27.80;28.30
67549;DHT22;54382;53.524;49.326;2022-09-13T06:58:04;27.80;28.10
67549;DHT22;54382;53.524;49.326;2022-09-13T07:00:31;27.90;27.70
67549;DHT22;54382;53.524;49.326;2022-09-13T07:02:57;27.90;28.80
67549;DHT22;54382;53.524;49.326;2022-09-13T07:05:24;27.90;28.40
67549;DHT22;54382;53.524;49.326;2022-09-13T07:07:50;27.90;28.50
67549;DHT22;54382;53.524;49.326;2022-09-13T07:10:16;28.10;28.30
67549;DHT22;54382;53.524;49.326;2022-09-13T07:12:43;28.20;27.50
67549;DHT22;54382;53.524;49.326;2022-09-13T07:15:09;28.10;27.30
67549;DHT22;54382;53.524;49.326;2022-09-13T07:17:36;28.10;27.30
67549;DHT22;54382;53.524;49.326;2022-09-13T07:20:02;28.10;27.10
67549;DHT22;54382;53.524;49.326;2022-09-13T07:22:31;28.10;27.10
67549;DHT22;54382;53.524;49.326;2022-09-13T07:24:58;28.10;27.30
67549;DHT22;54382;53.524;49.326;2022-09-13T07:27:25;28.10;27.50
67549;DHT22;54382;53.524;49.326;2022-09-13T07:29:51;28.20;27.70
67549;DHT22;54382;53.524;49.326;2022-09-13T07:32:18;28.50;27.70
67549;DHT22;54382;53.524;49.326;2022-09-13T07:34:44;28.60;27.80
67549;DHT22;54382;53.524;49.326;2022-09-13T07:37:10;28.80;27.30
67549;DHT22;54382;53.524;49.326;2022-09-13T07:39:37;29.00;27.20
67549;DHT22;54382;53.524;49.326;2022-09-13T07:42:03;29.10;27.40
67549;DHT22;54382;53.524;49.326;2022-09-13T07:44:30;29.20;27.20
67549;DHT22;54382;53.524;49.326;2022-09-13T07:46:56;29.30;26.40
67549;DHT22;54382;53.524;49.326;2022-09-13T07:49:22;29.30;26.40
67549;DHT22;54382;53.524;49.326;2022-09-13T07:51:49;29.50;25.80
67549;DHT22;54382;53.524;49.326;2022-09-13T07:54:18;29.50;26.00
67549;DHT22;54382;53.524;49.326;2022-09-13T07:56:45;29.60;25.70
67549;DHT22;54382;53.524;49.326;2022-09-13T07:59:15;29.60;25.80
67549;DHT22;54382;53.524;49.326;2022-09-13T08:01:42;29.60;26.00
67549;DHT22;54382;53.524;49.326;2022-09-13T08:04:11;29.60;25.70
67549;DHT22;54382;53.524;49.326;2022-09-13T08:06:39;29.60;25.80
67549;DHT22;54382;53.524;49.326;2022-09-13T08:09:08;29.70;25.50
67549;DHT22;54382;53.524;49.326;2022-09-13T08:11:36;29.70;25.80
67549;DHT22;54382;53.524;49.326;2022-09-13T08:14:04;29.70;25.40
67549;DHT22;54382;53.524;49.326;2022-09-13T08:16:31;29.80;25.60
67549;DHT22;54382;53.524;49.326;2022-09-13T08:18:59;29.70;25.20
67549;DHT22;54382;53.524;49.326;2022-09-13T08:21:30;29.70;25.40
67549;DHT22;54382;53.524;49.326;2022-09-13T08:23:57;29.80;25.50
67549;DHT22;54382;53.524;49.326;2022-09-13T08:26:28;29.80;25.50
67549;DHT22;54382;53.524;49.326;2022-09-13T08:28:56;29.70;25.50
67549;DHT22;54382;53.524;49.326;2022-09-13T08:31:24;29.70;25.50
67549;DHT22;54382;53.524;49.326;2022-09-13T08:33:51;29.80;25.70
67549;DHT22;54382;53.524;49.326;2022-09-13T08:36:18;30.00;25.30
67549;DHT22;54382;53.524;49.326;2022-09-13T08:38:48;30.00;24.70
67549;DHT22;54382;53.524;49.326;2022-09-13T08:44:01;30.00;25.30
67549;DHT22;54382;53.524;49.326;2022-09-13T08:46:44;30.00;25.20
67549;DHT22;54382;53.524;49.326;2022-09-13T08:49:17;30.00;25.10
67549;DHT22;54382;53.524;49.326;2022-09-13T08:52:04;29.90;24.90
67549;DHT22;54382;53.524;49.326;2022-09-13T08:54:42;29.90;24.90
67549;DHT22;54382;53.524;49.326;2022-09-13T08:57:12;29.90;24.90
67549;DHT22;54382;53.524;49.326;2022-09-13T09:02:47;30.10;25.30
67549;DHT22;54382;53.524;49.326;2022-09-13T09:08:03;30.10;24.80
67549;DHT22;54382;53.524;49.326;2022-09-13T09:10:45;30.30;25.10
67549;DHT22;54382;53.524;49.326;2022-09-13T09:13:18;30.40;24.60
67549;DHT22;54382;53.524;49.326;2022-09-13T09:15:56;30.40;24.10
67549;DHT22;54382;53.524;49.326;2022-09-13T09:18:30;30.30;24.30
67549;DHT22;54382;53.524;49.326;2022-09-13T09:20:58;30.40;24.20
67549;DHT22;54382;53.524;49.326;2022-09-13T09:23:30;30.40;24.40
67549;DHT22;54382;53.524;49.326;2022-09-13T09:26:16;30.30;24.30
67549;DHT22;54382;53.524;49.326;2022-09-13T09:28:48;30.30;24.10
67549;DHT22;54382;53.524;49.326;2022-09-13T09:34:38;30.30;24.10
67549;DHT22;54382;53.524;49.326;2022-09-13T09:37:18;30.30;24.30
67549;DHT22;54382;53.524;49.326;2022-09-13T09:39:46;30.50;23.90
67549;DHT22;54382;53.524;49.326;2022-09-13T09:42:14;30.60;23.90
67549;DHT22;54382;53.524;49.326;2022-09-13T09:44:45;30.50;23.90
67549;DHT22;54382;53.524;49.326;2022-09-13T09:50:25;30.60;24.10
67549;DHT22;54382;53.524;49.326;2022-09-13T09:52:56;30.70;24.40
67549;DHT22;54382;53.524;49.326;2022-09-13T09:55:28;30.70;24.40
67549;DHT22;54382;53.524;49.326;2022-09-13T09:58:06;30.60;24.10
67549;DHT22;54382;53.524;49.326;2022-09-13T10:00:34;30.50;24.20
67549;DHT22;54382;53.524;49.326;2022-09-13T10:03:02;30.40;24.10
67549;DHT22;54382;53.524;49.326;2022-09-13T10:05:30;30.20;24.20
67549;DHT22;54382;53.524;49.326;2022-09-13T10:08:01;30.10;24.40
67549;DHT22;54382;53.524;49.326;2022-09-13T10:13:18;30.00;24.70
67549;DHT22;54382;53.524;49.326;2022-09-13T10:15:55;30.00;24.80
67549;DHT22;54382;53.524;49.326;2022-09-13T10:18:24;30.00;24.80
67549;DHT22;54382;53.524;49.326;2022-09-13T10:21:02;30.10;24.80
67549;DHT22;54382;53.524;49.326;2022-09-13T10:23:32;30.10;24.90
67549;DHT22;54382;53.524;49.326;2022-09-13T10:26:03;30.00;24.80
67549;DHT22;54382;53.524;49.326;2022-09-13T10:29:07;30.00;25.00
67549;DHT22;54382;53.524;49.326;2022-09-13T10:31:33;29.90;24.70
67549;DHT22;54382;53.524;49.326;2022-09-13T10:34:06;30.00;25.10
67549;DHT22;54382;53.524;49.326;2022-09-13T10:36:50;30.00;24.90
67549;DHT22;54382;53.524;49.326;2022-09-13T10:39:45;29.90;25.00
67549;DHT22;54382;53.524;49.326;2022-09-13T10:42:18;29.90;25.10
67549;DHT22;54382;53.524;49.326;2022-09-13T10:44:51;29.90;25.10
67549;DHT22;54382;53.524;49.326;2022-09-13T10:47:33;30.00;25.20
67549;DHT22;54382;53.524;49.326;2022-09-13T10:50:11;29.90;25.20
67549;DHT22;54382;53.524;49.326;2022-09-13T10:52:54;29.90;25.20
67549;DHT22;54382;53.524;49.326;2022-09-13T10:55:29;29.70;24.90
67549;DHT22;54382;53.524;49.326;2022-09-13T11:24:16;28.80;25.70
67549;DHT22;54382;53.524;49.326;2022-09-13T11:26:48;28.60;25.30
67549;DHT22;54382;53.524;49.326;2022-09-13T11:32:03;28.60;25.30
67549;DHT22;54382;53.524;49.326;2022-09-13T11:42:43;28.90;25.10
67549;DHT22;54382;53.524;49.326;2022-09-13T11:45:24;28.90;24.90
67549;DHT22;54382;53.524;49.326;2022-09-13T11:50:43;29.20;24.90
67549;DHT22;54382;53.524;49.326;2022-09-13T11:53:42;29.30;25.10
67549;DHT22;54382;53.524;49.326;2022-09-13T12:02:12;29.30;25.30
67549;DHT22;54382;53.524;49.326;2022-09-13T12:04:47;29.40;25.40
67549;DHT22;54382;53.524;49.326;2022-09-13T12:07:37;29.50;25.20
67549;DHT22;54382;53.524;49.326;2022-09-13T12:10:14;29.70;25.20
67549;DHT22;54382;53.524;49.326;2022-09-13T12:12:51;29.60;25.20
67549;DHT22;54382;53.524;49.326;2022-09-13T12:15:25;29.60;25.30
67549;DHT22;54382;53.524;49.326;2022-09-13T12:18:10;29.50;25.30
67549;DHT22;54382;53.524;49.326;2022-09-13T12:20:41;29.50;25.30
67549;DHT22;54382;53.524;49.326;2022-09-13T12:23:14;29.40;25.20
67549;DHT22;54382;53.524;49.326;2022-09-13T12:25:45;29.40;25.40
67549;DHT22;54382;53.524;49.326;2022-09-13T12:28:27;29.20;25.50
67549;DHT22;54382;53.524;49.326;2022-09-13T12:31:18;29.10;25.70
67549;DHT22;54382;53.524;49.326;2022-09-13T12:33:47;28.90;25.80
67549;DHT22;54382;53.524;49.326;2022-09-13T12:47:15;28.20;26.40
67549;DHT22;54382;53.524;49.326;2022-09-13T12:53:02;27.90;26.70
67549;DHT22;54382;53.524;49.326;2022-09-13T12:55:37;27.80;26.90
67549;DHT22;54382;53.524;49.326;2022-09-13T13:01:08;27.60;27.20
67549;DHT22;54382;53.524;49.326;2022-09-13T13:04:00;27.60;27.20
67549;DHT22;54382;53.524;49.326;2022-09-13T13:06:55;27.50;27.10
67549;DHT22;54382;53.524;49.326;2022-09-13T13:11:56;27.40;27.40
67549;DHT22;54382;53.524;49.326;2022-09-13T13:17:33;27.30;27.50
67549;DHT22;54382;53.524;49.326;2022-09-13T13:19:59;27.30;27.50
67549;DHT22;54382;53.524;49.326;2022-09-13T13:22:47;27.30;27.50
67549;DHT22;54382;53.524;49.326;2022-09-13T13:25:32;27.30;27.50
67549;DHT22;54382;53.524;49.326;2022-09-13T13:31:07;27.30;27.70
67549;DHT22;54382;53.524;49.326;2022-09-13T13:36:28;27.10;27.70
67549;DHT22;54382;53.524;49.326;2022-09-13T13:39:08;27.10;27.70
67549;DHT22;54382;53.524;49.326;2022-09-13T13:46:40;26.90;28.00
67549;DHT22;54382;53.524;49.326;2022-09-13T13:49:42;26.80;28.00
67549;DHT22;54382;53.524;49.326;2022-09-13T13:57:44;26.60;28.20
67549;DHT22;54382;53.524;49.326;2022-09-13T14:00:17;26.50;28.30
67549;DHT22;54382;53.524;49.326;2022-09-13T14:11:07;26.20;28.70
67549;DHT22;54382;53.524;49.326;2022-09-13T14:14:05;26.20;28.60
67549;DHT22;54382;53.524;49.326;2022-09-13T14:17:21;26.20;28.60
67549;DHT22;54382;53.524;49.326;2022-09-13T14:19:52;26.20;28.60
67549;DHT22;54382;53.524;49.326;2022-09-13T14:22:29;26.30;28.60
67549;DHT22;54382;53.524;49.326;2022-09-13T14:24:57;26.20;28.50
67549;DHT22;54382;53.524;49.326;2022-09-13T14:27:28;26.20;28.60
67549;DHT22;54382;53.524;49.326;2022-09-13T14:29:56;26.20;28.70
67549;DHT22;54382;53.524;49.326;2022-09-13T14:32:30;26.10;28.60
67549;DHT22;54382;53.524;49.326;2022-09-13T14:35:05;26.10;28.80
67549;DHT22;54382;53.524;49.326;2022-09-13T14:37:44;26.10;28.80
67549;DHT22;54382;53.524;49.326;2022-09-13T14:40:15;26.00;28.90
67549;DHT22;54382;53.524;49.326;2022-09-13T14:42:47;25.90;29.00
67549;DHT22;54382;53.524;49.326;2022-09-13T14:45:19;25.80;29.00
67549;DHT22;54382;53.524;49.326;2022-09-13T14:48:01;25.80;29.20
67549;DHT22;54382;53.524;49.326;2022-09-13T14:50:31;25.70;29.30
67549;DHT22;54382;53.524;49.326;2022-09-13T14:53:03;25.70;29.90
67549;DHT22;54382;53.524;49.326;2022-09-13T14:55:38;25.70;29.40
67549;DHT22;54382;53.524;49.326;2022-09-13T14:58:14;25.70;29.40
67549;DHT22;54382;53.524;49.326;2022-09-13T15:01:05;25.70;29.40
67549;DHT22;54382;53.524;49.326;2022-09-13T15:03:31;25.70;29.50
67549;DHT22;54382;53.524;49.326;2022-09-13T15:05:58;25.60;29.40
67549;DHT22;54382;53.524;49.326;2022-09-13T15:10:59;25.40;29.60
67549;DHT22;54382;53.524;49.326;2022-09-13T15:13:27;25.40;29.80
67549;DHT22;54382;53.524;49.326;2022-09-13T15:15:54;25.50;29.90
67549;DHT22;54382;53.524;49.326;2022-09-13T15:18:22;25.50;29.80
67549;DHT22;54382;53.524;49.326;2022-09-13T15:21:05;25.40;29.80
67549;DHT22;54382;53.524;49.326;2022-09-13T15:23:40;25.40;29.90
67549;DHT22;54382;53.524;49.326;2022-09-13T15:26:09;25.30;29.90
67549;DHT22;54382;53.524;49.326;2022-09-13T15:28:51;25.20;30.00
67549;DHT22;54382;53.524;49.326;2022-09-13T15:31:22;25.10;30.00
67549;DHT22;54382;53.524;49.326;2022-09-13T15:36:44;25.10;30.20
67549;DHT22;54382;53.524;49.326;2022-09-13T15:39:15;25.00;30.30
67549;DHT22;54382;53.524;49.326;2022-09-13T15:44:19;24.90;30.30
67549;DHT22;54382;53.524;49.326;2022-09-13T15:46:47;24.90;30.30
67549;DHT22;54382;53.524;49.326;2022-09-13T15:49:18;24.90;30.20
67549;DHT22;54382;53.524;49.326;2022-09-13T15:51:45;24.90;30.30
67549;DHT22;54382;53.524;49.326;2022-09-13T15:54:13;24.90;30.30
67549;DHT22;54382;53.524;49.326;2022-09-13T15:56:41;24.90;30.40
67549;DHT22;54382;53.524;49.326;2022-09-13T15:59:13;24.90;30.40
67549;DHT22;54382;53.524;49.326;2022-09-13T16:01:41;24.80;30.30
67549;DHT22;54382;53.524;49.326;2022-09-13T16:04:08;24.80;30.40
67549;DHT22;54382;53.524;49.326;2022-09-13T16:06:34;24.80;30.50
67549;DHT22;54382;53.524;49.326;2022-09-13T16:09:01;24.80;30.60
67549;DHT22;54382;53.524;49.326;2022-09-13T16:11:32;24.70;30.50
67549;DHT22;54382;53.524;49.326;2022-09-13T16:13:58;24.60;30.60
67549;DHT22;54382;53.524;49.326;2022-09-13T16:16:25;24.60;30.70
67549;DHT22;54382;53.524;49.326;2022-09-13T16:18:51;24.60;30.80
67549;DHT22;54382;53.524;49.326;2022-09-13T16:21:17;24.60;30.80
67549;DHT22;54382;53.524;49.326;2022-09-13T16:23:44;24.60;30.80
67549;DHT22;54382;53.524;49.326;2022-09-13T16:26:10;24.50;30.80
67549;DHT22;54382;53.524;49.326;2022-09-13T16:28:36;24.50;30.80
67549;DHT22;54382;53.524;49.326;2022-09-13T16:31:03;24.50;30.90
67549;DHT22;54382;53.524;49.326;2022-09-13T16:33:29;24.50;30.80
67549;DHT22;54382;53.524;49.326;2022-09-13T16:35:56;24.50;31.50
67549;DHT22;54382;53.524;49.326;2022-09-13T16:38:22;24.50;30.90
67549;DHT22;54382;53.524;49.326;2022-09-13T16:40:48;24.40;30.90
67549;DHT22;54382;53.524;49.326;2022-09-13T16:43:15;24.40;31.10
67549;DHT22;54382;53.524;49.326;2022-09-13T16:45:42;24.40;31.10
67549;DHT22;54382;53.524;49.326;2022-09-13T16:48:09;24.40;31.10
67549;DHT22;54382;53.524;49.326;2022-09-13T16:50:39;24.30;31.10
67549;DHT22;54382;53.524;49.326;2022-09-13T16:53:05;24.30;31.10
67549;DHT22;54382;53.524;49.326;2022-09-13T16:55:32;24.30;31.20
67549;DHT22;54382;53.524;49.326;2022-09-13T16:57:58;24.30;31.30
67549;DHT22;54382;53.524;49.326;2022-09-13T17:00:25;24.20;31.30
67549;DHT22;54382;53.524;49.326;2022-09-13T17:02:53;24.20;31.40
67549;DHT22;54382;53.524;49.326;2022-09-13T17:05:21;24.20;31.50
67549;DHT22;54382;53.524;49.326;2022-09-13T17:07:49;24.20;31.50
67549;DHT22;54382;53.524;49.326;2022-09-13T17:10:16;24.20;31.50
67549;DHT22;54382;53.524;49.326;2022-09-13T17:12:42;24.20;31.40
67549;DHT22;54382;53.524;49.326;2022-09-13T17:15:09;24.10;31.40
67549;DHT22;54382;53.524;49.326;2022-09-13T17:17:36;24.10;31.40
67549;DHT22;54382;53.524;49.326;2022-09-13T17:20:03;24.10;31.40
67549;DHT22;54382;53.524;49.326;2022-09-13T17:22:32;24.00;31.40
67549;DHT22;54382;53.524;49.326;2022-09-13T17:24:59;24.00;32.30
67549;DHT22;54382;53.524;49.326;2022-09-13T17:27:26;24.00;31.60
67549;DHT22;54382;53.524;49.326;2022-09-13T17:29:52;24.00;31.60
67549;DHT22;54382;53.524;49.326;2022-09-13T17:32:18;23.90;31.60
67549;DHT22;54382;53.524;49.326;2022-09-13T17:34:47;23.90;31.80
67549;DHT22;54382;53.524;49.326;2022-09-13T17:37:14;23.90;32.00
67549;DHT22;54382;53.524;49.326;2022-09-13T17:39:40;23.90;32.10
67549;DHT22;54382;53.524;49.326;2022-09-13T17:42:06;23.90;32.00
67549;DHT22;54382;53.524;49.326;2022-09-13T17:44:33;24.00;32.00
67549;DHT22;54382;53.524;49.326;2022-09-13T17:46:59;23.90;31.80
67549;DHT22;54382;53.524;49.326;2022-09-13T17:49:26;24.00;31.90
67549;DHT22;54382;53.524;49.326;2022-09-13T17:51:53;23.90;31.80
67549;DHT22;54382;53.524;49.326;2022-09-13T17:54:19;23.90;31.80
67549;DHT22;54382;53.524;49.326;2022-09-13T17:56:46;24.00;31.80
67549;DHT22;54382;53.524;49.326;2022-09-13T17:59:13;24.00;31.80
67549;DHT22;54382;53.524;49.326;2022-09-13T18:01:44;24.00;32.00
67549;DHT22;54382;53.524;49.326;2022-09-13T18:04:13;24.00;32.20
67549;DHT22;54382;53.524;49.326;2022-09-13T18:06:40;23.90;32.40
67549;DHT22;54382;53.524;49.326;2022-09-13T18:09:08;23.90;32.50
67549;DHT22;54382;53.524;49.326;2022-09-13T18:11:36;23.80;32.50
67549;DHT22;54382;53.524;49.326;2022-09-13T18:14:03;23.80;32.60
67549;DHT22;54382;53.524;49.326;2022-09-13T18:16:30;23.80;32.50
67549;DHT22;54382;53.524;49.326;2022-09-13T18:18:57;23.80;32.50
67549;DHT22;54382;53.524;49.326;2022-09-13T18:21:24;23.80;32.40
67549;DHT22;54382;53.524;49.326;2022-09-13T18:23:52;23.80;32.40
67549;DHT22;54382;53.524;49.326;2022-09-13T18:26:21;23.80;32.40
67549;DHT22;54382;53.524;49.326;2022-09-13T18:28:57;23.90;32.40
67549;DHT22;54382;53.524;49.326;2022-09-13T18:31:26;23.90;32.40
67549;DHT22;54382;53.524;49.326;2022-09-13T18:33:54;23.90;32.60